Time;durP1;ratioP1;P1;durP2;ratioP2;P2;SDS_P1;SDS_P2;PMS_P1;PMS_P2;Temp;Humidity;BMP_temperature;BMP_pressure;BME280_temperature;BME280_humidity;BME280_pressure;Samples;Min_cycle;Max_cycle;Signal;HPM_P1;HPM_P2
2021/01/15 00:02:22;;;;;;;16.33;8.90;;;-1.60;99.90;;;;;;4752676;30;20051;-77
2021/01/15 00:04:54;;;;;;;18.38;9.60;;;-1.70;99.90;;;;;;4738728;30;20044;-78
2021/01/15 00:07:21;;;;;;;13.93;8.68;;;-1.70;99.90;;;;;;4752345;30;20086;-78
2021/01/15 00:09:52;;;;;;;17.05;9.65;;;-1.70;99.90;;;;;;4752986;30;20060;-79
2021/01/15 00:12:23;;;;;;;12.90;8.85;;;-1.70;99.90;;;;;;4753321;30;20056;-78
2021/01/15 00:14:55;;;;;;;15.32;9.98;;;-1.70;99.90;;;;;;4737825;30;20144;-78
2021/01/15 00:17:22;;;;;;;14.00;9.75;;;-1.70;99.90;;;;;;4737860;30;20060;-77
2021/01/15 00:19:54;;;;;;;14.77;8.60;;;-1.70;99.90;;;;;;4737881;30;20058;-77
2021/01/15 00:22:25;;;;;;;14.02;9.25;;;-1.70;99.90;;;;;;4738548;30;20138;-77
2021/01/15 00:24:56;;;;;;;13.07;8.50;;;-1.70;99.90;;;;;;4738227;30;20050;-78
2021/01/15 00:27:28;;;;;;;16.77;9.48;;;-1.70;99.90;;;;;;4738235;30;20630;-77
2021/01/15 00:29:59;;;;;;;11.88;8.57;;;-1.70;99.90;;;;;;4737974;30;20070;-78
2021/01/15 00:32:25;;;;;;;13.88;9.43;;;-1.70;99.90;;;;;;4754153;30;20135;-78
2021/01/15 00:34:51;;;;;;;13.48;8.98;;;-1.70;99.90;;;;;;4755323;30;20059;-78
2021/01/15 00:37:23;;;;;;;16.85;10.23;;;-1.70;99.90;;;;;;4742381;30;20435;-77
2021/01/15 00:39:54;;;;;;;15.40;9.27;;;-1.70;99.90;;;;;;4762561;30;20047;-78
2021/01/15 00:42:21;;;;;;;12.93;8.68;;;-1.70;99.90;;;;;;4748463;30;20048;-78
2021/01/15 00:44:55;;;;;;;17.73;10.23;;;-1.70;99.90;;;;;;4749558;30;20135;-78
2021/01/15 00:47:22;;;;;;;16.73;10.38;;;-1.70;99.90;;;;;;4750346;30;20068;-78
2021/01/15 00:49:51;;;;;;;16.33;9.65;;;-1.80;99.90;;;;;;4747245;30;20055;-78
2021/01/15 00:52:18;;;;;;;15.80;10.77;;;-1.80;99.90;;;;;;4751011;30;20163;-78
2021/01/15 00:54:44;;;;;;;18.05;10.07;;;-1.80;99.90;;;;;;4782016;30;20098;-77
2021/01/15 00:57:15;;;;;;;15.63;10.65;;;-1.80;99.90;;;;;;4766319;30;20056;-78
2021/01/15 00:59:47;;;;;;;15.02;10.30;;;-1.80;99.90;;;;;;4759483;30;20076;-78
2021/01/15 01:02:33;;;;;;;18.73;10.63;;;-1.80;99.90;;;;;;4759748;30;20048;-78
2021/01/15 01:04:59;;;;;;;14.32;10.02;;;-1.90;99.90;;;;;;4744520;30;20135;-78
2021/01/15 01:07:33;;;;;;;17.00;11.30;;;-1.80;99.90;;;;;;4744882;30;20119;-78
2021/01/15 01:10:04;;;;;;;17.45;10.75;;;-1.90;99.90;;;;;;4744179;30;20484;-78
2021/01/15 01:12:38;;;;;;;16.20;10.40;;;-1.90;99.90;;;;;;4743844;30;20179;-78
2021/01/15 01:15:13;;;;;;;16.02;10.23;;;-1.90;99.90;;;;;;4739793;30;20054;-78
2021/01/15 01:17:40;;;;;;;15.02;10.40;;;-2.00;99.90;;;;;;4740793;30;20160;-80
2021/01/15 01:20:08;;;;;;;19.50;11.00;;;-2.00;99.90;;;;;;4740846;30;20386;-78
2021/01/15 01:22:51;;;;;;;18.23;8.77;;;-2.00;99.90;;;;;;4755326;30;20519;-78
2021/01/15 01:25:22;;;;;;;13.88;8.27;;;-2.00;99.90;;;;;;4740811;30;20326;-78
2021/01/15 01:27:53;;;;;;;13.77;8.40;;;-2.00;99.90;;;;;;4756140;30;20048;-78
2021/01/15 01:30:25;;;;;;;14.50;9.20;;;-2.00;99.90;;;;;;4755615;30;20063;-78
2021/01/15 01:32:57;;;;;;;13.20;8.80;;;-2.00;99.90;;;;;;4755893;30;20044;-77
2021/01/15 01:35:23;;;;;;;12.27;7.82;;;-2.00;99.90;;;;;;4755947;30;20416;-78
2021/01/15 01:37:54;;;;;;;12.20;7.35;;;-2.10;99.90;;;;;;4754883;30;20132;-78
2021/01/15 01:40:21;;;;;;;11.52;6.88;;;-2.10;99.90;;;;;;4754586;30;20147;-79
2021/01/15 01:42:52;;;;;;;15.65;7.05;;;-2.10;99.90;;;;;;4739316;30;20054;-78
2021/01/15 01:45:23;;;;;;;12.45;6.88;;;-2.10;99.90;;;;;;4754873;30;20142;-78
2021/01/15 01:47:56;;;;;;;11.32;7.10;;;-2.10;99.90;;;;;;4754490;30;20044;-78
2021/01/15 01:50:28;;;;;;;11.60;6.72;;;-2.10;99.90;;;;;;4739741;30;20048;-79
2021/01/15 01:53:04;;;;;;;10.27;6.43;;;-2.10;99.90;;;;;;4754907;30;20048;-77
2021/01/15 01:55:37;;;;;;;9.88;7.10;;;-2.10;99.90;;;;;;4754411;30;20067;-78
2021/01/15 01:58:11;;;;;;;9.90;6.97;;;-2.10;99.90;;;;;;4754368;30;20072;-78
2021/01/15 02:00:46;;;;;;;10.73;7.57;;;-2.10;99.90;;;;;;4754684;30;20067;-78
2021/01/15 02:03:16;;;;;;;12.77;7.07;;;-2.10;99.90;;;;;;4739423;30;20477;-78
2021/01/15 02:05:43;;;;;;;12.32;7.43;;;-2.20;99.90;;;;;;4753632;30;20221;-78
2021/01/15 02:08:14;;;;;;;9.18;6.53;;;-2.20;99.90;;;;;;4753476;30;20063;-78
2021/01/15 02:10:51;;;;;;;12.32;7.65;;;-2.20;99.90;;;;;;4753745;30;20512;-78
2021/01/15 02:13:29;;;;;;;13.88;7.38;;;-2.20;99.90;;;;;;4738886;30;20052;-78
2021/01/15 02:16:08;;;;;;;16.10;7.82;;;-2.20;99.90;;;;;;4739155;30;20139;-78
2021/01/15 02:18:54;;;;;;;12.55;6.90;;;-2.20;99.90;;;;;;4739054;30;20052;-78
2021/01/15 02:21:55;;;;;;;10.23;6.80;;;-2.20;99.90;;;;;;4739704;30;20044;-79
2021/01/15 02:24:36;;;;;;;12.98;7.03;;;-2.20;99.90;;;;;;4725289;30;20063;-78
2021/01/15 02:27:39;;;;;;;11.05;7.30;;;-2.30;99.90;;;;;;4739339;30;20472;-77
2021/01/15 02:30:22;;;;;;;10.55;6.93;;;-2.30;99.90;;;;;;4724108;30;20060;-78
2021/01/15 02:33:26;;;;;;;13.55;7.25;;;-2.40;99.90;;;;;;4724564;30;20048;-80
2021/01/15 02:36:08;;;;;;;14.10;7.70;;;-2.40;99.90;;;;;;4738704;30;20058;-78
2021/01/15 02:38:53;;;;;;;14.13;8.30;;;-2.40;99.90;;;;;;4724012;30;20082;-78
2021/01/15 02:41:26;;;;;;;15.25;8.48;;;-2.40;99.90;;;;;;4723743;30;20052;-78
2021/01/15 02:44:02;;;;;;;14.15;8.70;;;-2.40;99.90;;;;;;4738808;30;20044;-78
2021/01/15 02:46:56;;;;;;;12.50;7.80;;;-2.40;99.90;;;;;;4738758;30;20533;-78
2021/01/15 02:49:28;;;;;;;12.00;7.28;;;-2.40;99.90;;;;;;4738836;30;20052;-78
2021/01/15 02:51:59;;;;;;;10.88;6.68;;;-2.50;99.90;;;;;;4724945;30;20070;-78
2021/01/15 02:54:26;;;;;;;11.63;7.35;;;-2.60;99.90;;;;;;4738755;30;20056;-78
2021/01/15 02:56:52;;;;;;;9.85;7.00;;;-2.60;99.90;;;;;;4724463;30;20147;-78
2021/01/15 02:59:18;;;;;;;11.15;6.68;;;-2.70;99.90;;;;;;4738392;30;20054;-78
2021/01/15 03:02:12;;;;;;;13.48;7.93;;;-2.70;99.90;;;;;;4724989;30;20048;-78
2021/01/15 03:04:46;;;;;;;11.95;7.63;;;-2.70;99.90;;;;;;4754303;30;20263;-78
2021/01/15 03:07:19;;;;;;;10.55;7.25;;;-2.80;99.90;;;;;;4724847;30;20044;-78
2021/01/15 03:09:55;;;;;;;14.60;6.85;;;-2.80;99.90;;;;;;4724253;30;20048;-78
2021/01/15 03:12:26;;;;;;;10.38;6.90;;;-2.90;99.90;;;;;;4724569;30;20062;-78
2021/01/15 03:14:56;;;;;;;12.32;7.05;;;-2.90;99.90;;;;;;4728655;30;20143;-78
2021/01/15 03:17:33;;;;;;;13.32;7.45;;;-2.90;99.90;;;;;;4753868;30;20068;-78
2021/01/15 03:20:05;;;;;;;10.48;6.63;;;-3.00;99.90;;;;;;4753014;30;20071;-77
2021/01/15 03:22:33;;;;;;;11.25;6.53;;;-3.00;99.90;;;;;;4753541;30;20493;-77
2021/01/15 03:25:00;;;;;;;13.20;7.78;;;-3.00;99.90;;;;;;4753926;30;20515;-77
2021/01/15 03:27:43;;;;;;;10.25;7.00;;;-3.00;99.90;;;;;;4753529;30;20044;-77
2021/01/15 03:30:15;;;;;;;12.88;7.07;;;-3.00;99.90;;;;;;4738767;30;20052;-78
2021/01/15 03:32:42;;;;;;;13.75;7.53;;;-3.00;99.90;;;;;;4755706;30;20076;-78
2021/01/15 03:35:22;;;;;;;12.18;7.35;;;-3.00;99.90;;;;;;4740911;30;20576;-80
2021/01/15 03:38:03;;;;;;;18.23;8.10;;;-3.10;99.90;;;;;;4755723;30;20056;-78
2021/01/15 03:40:35;;;;;;;12.75;8.15;;;-3.10;99.90;;;;;;4740739;30;20539;-77
2021/01/15 03:43:09;;;;;;;12.82;8.57;;;-3.10;99.90;;;;;;4755164;30;20143;-78
2021/01/15 03:45:35;;;;;;;11.15;8.57;;;-3.10;99.90;;;;;;4740531;30;20135;-78
2021/01/15 03:48:01;;;;;;;13.48;8.88;;;-3.20;99.90;;;;;;4754284;30;20509;-78
2021/01/15 03:50:33;;;;;;;12.95;9.52;;;-3.20;99.90;;;;;;4741862;30;20065;-78
2021/01/15 03:53:05;;;;;;;11.60;7.93;;;-3.30;99.90;;;;;;4741894;30;20075;-78
2021/01/15 03:55:36;;;;;;;10.77;6.53;;;-3.30;99.90;;;;;;4755823;30;20123;-78
2021/01/15 03:58:02;;;;;;;9.50;6.85;;;-3.30;99.90;;;;;;4755274;30;20049;-77
2021/01/15 04:00:28;;;;;;;7.53;5.50;;;-3.30;99.90;;;;;;4755573;30;20087;-78
2021/01/15 04:02:55;;;;;;;8.80;5.95;;;-3.30;99.90;;;;;;4740476;30;20147;-77
2021/01/15 04:05:21;;;;;;;7.88;5.20;;;-3.40;99.90;;;;;;4755469;30;20052;-77
2021/01/15 04:07:52;;;;;;;13.13;6.28;;;-3.40;99.90;;;;;;4757933;30;20055;-77
2021/01/15 04:10:19;;;;;;;9.82;5.63;;;-3.40;99.90;;;;;;4743666;30;20118;-77
2021/01/15 04:12:46;;;;;;;11.68;6.60;;;-3.40;99.90;;;;;;4743899;30;20083;-78
2021/01/15 04:15:14;;;;;;;9.90;6.80;;;-3.50;99.90;;;;;;4758316;30;20600;-78
2021/01/15 04:17:45;;;;;;;7.60;5.60;;;-3.50;99.90;;;;;;4758942;30;20568;-77
2021/01/15 04:20:16;;;;;;;10.00;6.15;;;-3.50;99.90;;;;;;4758502;30;20577;-78
2021/01/15 04:22:47;;;;;;;7.90;5.47;;;-3.50;99.90;;;;;;4743090;30;20148;-78
2021/01/15 04:25:14;;;;;;;10.30;5.72;;;-3.60;99.90;;;;;;4741286;30;20075;-78
2021/01/15 04:27:46;;;;;;;8.55;5.47;;;-3.60;99.90;;;;;;4753648;30;20058;-78
2021/01/15 04:30:17;;;;;;;10.50;6.28;;;-3.60;99.90;;;;;;4737622;30;20062;-78
2021/01/15 04:32:49;;;;;;;9.77;6.68;;;-3.60;99.90;;;;;;4752952;30;20644;-78
2021/01/15 04:35:21;;;;;;;8.60;5.50;;;-3.60;99.90;;;;;;4752936;30;20401;-78
2021/01/15 04:37:47;;;;;;;9.73;6.40;;;-3.70;99.90;;;;;;4737565;30;20048;-78
2021/01/15 04:40:14;;;;;;;12.77;5.72;;;-3.70;99.90;;;;;;4751428;30;20072;-77
2021/01/15 04:42:46;;;;;;;9.65;5.90;;;-3.70;99.90;;;;;;4737250;30;20048;-77
2021/01/15 04:45:16;;;;;;;8.65;5.40;;;-3.70;99.90;;;;;;4736517;30;20046;-78
2021/01/15 04:47:48;;;;;;;10.05;6.97;;;-3.80;99.90;;;;;;4736632;30;20052;-77
2021/01/15 04:50:19;;;;;;;9.25;6.00;;;-3.60;99.90;;;;;;4750601;30;20062;-77
2021/01/15 04:52:52;;;;;;;10.38;5.85;;;-3.30;99.90;;;;;;4736096;30;20501;-77
2021/01/15 04:55:25;;;;;;;8.57;6.30;;;-3.30;99.90;;;;;;4749947;30;20422;-78
2021/01/15 04:57:59;;;;;;;11.63;6.97;;;-3.40;99.90;;;;;;4751340;30;20421;-78
2021/01/15 05:00:26;;;;;;;8.63;6.15;;;-3.40;99.90;;;;;;4750426;30;20056;-77
2021/01/15 05:02:59;;;;;;;8.98;5.90;;;-3.50;99.90;;;;;;4751415;30;20048;-77
2021/01/15 05:05:27;;;;;;;12.98;6.93;;;-3.60;99.90;;;;;;4750262;30;20151;-77
2021/01/15 05:08:22;;;;;;;12.85;6.15;;;-3.70;99.90;;;;;;4735608;30;20125;-77
2021/01/15 05:10:48;;;;;;;9.85;6.70;;;-3.80;99.90;;;;;;4750403;30;20044;-78
2021/01/15 05:13:20;;;;;;;10.38;6.28;;;-3.80;99.90;;;;;;4736826;30;20040;-78
2021/01/15 05:15:50;;;;;;;13.05;7.13;;;-3.90;99.90;;;;;;4735734;30;20058;-77
2021/01/15 05:18:18;;;;;;;11.85;6.63;;;-3.90;99.90;;;;;;4736015;30;20135;-77
2021/01/15 05:20:50;;;;;;;8.27;4.50;;;-4.00;99.90;;;;;;4721884;30;20052;-78
2021/01/15 05:23:17;;;;;;;10.48;6.18;;;-4.10;99.90;;;;;;4721045;30;20058;-77
2021/01/15 05:25:45;;;;;;;10.80;7.28;;;-4.10;99.90;;;;;;4721121;30;20428;-77
2021/01/15 05:28:18;;;;;;;10.27;6.85;;;-4.20;99.90;;;;;;4736543;30;20052;-77
2021/01/15 05:30:57;;;;;;;9.35;6.53;;;-4.30;99.90;;;;;;4721388;30;20044;-77
2021/01/15 05:33:23;;;;;;;12.18;7.68;;;-4.30;99.90;;;;;;4735192;30;20520;-77
2021/01/15 05:35:53;;;;;;;13.13;6.95;;;-4.30;99.90;;;;;;4720991;30;20079;-77
2021/01/15 05:38:21;;;;;;;12.48;7.03;;;-4.30;99.90;;;;;;4720737;30;20062;-77
2021/01/15 05:40:57;;;;;;;9.27;5.30;;;-4.30;99.90;;;;;;4735691;30;20048;-77
2021/01/15 05:43:33;;;;;;;11.60;6.70;;;-4.40;99.90;;;;;;4721439;30;20048;-77
2021/01/15 05:46:05;;;;;;;9.63;6.22;;;-4.40;99.90;;;;;;4721330;30;20048;-77
2021/01/15 05:48:44;;;;;;;10.02;6.40;;;-4.50;99.90;;;;;;4721319;30;20052;-77
2021/01/15 05:51:35;;;;;;;10.35;7.07;;;-4.50;99.90;;;;;;4735917;30;20052;-77
2021/01/15 05:54:07;;;;;;;13.90;6.72;;;-4.50;99.90;;;;;;4721175;30;20139;-77
2021/01/15 05:56:41;;;;;;;10.55;5.93;;;-4.60;99.90;;;;;;4735956;30;20828;-77
2021/01/15 05:59:14;;;;;;;9.77;6.40;;;-4.60;99.90;;;;;;4721180;30;20083;-77
2021/01/15 06:01:49;;;;;;;14.75;7.43;;;-4.60;99.90;;;;;;4721522;30;20059;-77
2021/01/15 06:04:33;;;;;;;12.32;6.80;;;-4.70;99.90;;;;;;4720902;30;20044;-77
2021/01/15 06:07:10;;;;;;;10.30;6.78;;;-4.70;99.90;;;;;;4721257;30;20137;-77
2021/01/15 06:09:44;;;;;;;10.13;6.35;;;-4.70;99.90;;;;;;4727892;30;20048;-77
2021/01/15 06:12:16;;;;;;;10.98;6.28;;;-4.70;99.90;;;;;;4735165;30;20056;-77
2021/01/15 06:14:56;;;;;;;11.57;7.00;;;-4.70;99.90;;;;;;4748283;30;20058;-77
2021/01/15 06:17:22;;;;;;;12.90;7.07;;;-4.70;99.90;;;;;;4764651;30;20059;-78
2021/01/15 06:19:57;;;;;;;11.13;7.13;;;-4.60;99.90;;;;;;4755109;30;20047;-77
2021/01/15 06:22:47;;;;;;;11.88;7.35;;;-4.60;99.90;;;;;;4755672;30;20135;-77
2021/01/15 06:25:30;;;;;;;15.68;9.10;;;-4.70;99.90;;;;;;4755409;30;20063;-77
2021/01/15 06:28:03;;;;;;;11.48;7.55;;;-4.60;99.90;;;;;;4744036;30;20055;-77
2021/01/15 06:30:36;;;;;;;14.30;7.85;;;-4.60;99.90;;;;;;4735183;30;20056;-78
2021/01/15 06:33:16;;;;;;;13.05;7.32;;;-4.60;99.90;;;;;;4752192;30;20052;-77
2021/01/15 06:35:46;;;;;;;14.93;9.02;;;-4.50;99.90;;;;;;4740230;30;20138;-77
2021/01/15 06:38:19;;;;;;;15.27;9.55;;;-4.50;99.90;;;;;;4770460;30;20043;-77
2021/01/15 06:40:51;;;;;;;21.70;13.40;;;-4.50;99.90;;;;;;4769532;30;20385;-77
2021/01/15 06:43:17;;;;;;;29.05;13.57;;;-4.50;99.90;;;;;;4769727;30;20051;-77
2021/01/15 06:45:48;;;;;;;32.13;13.55;;;-4.40;99.90;;;;;;4769212;30;20052;-78
2021/01/15 06:48:22;;;;;;;24.17;12.50;;;-4.30;99.90;;;;;;4769458;30;20056;-78
2021/01/15 06:50:56;;;;;;;31.27;14.95;;;-4.30;99.90;;;;;;4769773;30;20047;-77
2021/01/15 06:53:32;;;;;;;34.10;17.30;;;-4.30;99.90;;;;;;4769350;30;20047;-77
2021/01/15 06:56:05;;;;;;;33.67;15.32;;;-4.20;99.90;;;;;;4755198;30;20043;-77
2021/01/15 06:58:41;;;;;;;33.63;15.85;;;-4.30;99.90;;;;;;4769200;30;20049;-76
2021/01/15 07:01:13;;;;;;;28.65;12.88;;;-4.30;99.90;;;;;;4758623;30;20048;-78
2021/01/15 07:04:07;;;;;;;37.72;15.18;;;-4.30;99.90;;;;;;4730549;30;20147;-78
2021/01/15 07:06:35;;;;;;;23.48;11.27;;;-4.30;99.90;;;;;;4749850;30;20106;-78
2021/01/15 07:09:08;;;;;;;29.40;11.77;;;-4.40;99.90;;;;;;4737795;30;20047;-77
2021/01/15 07:11:42;;;;;;;26.80;12.38;;;-4.30;99.90;;;;;;4733751;30;20060;-77
2021/01/15 07:14:27;;;;;;;30.63;12.18;;;-4.30;99.90;;;;;;4745062;30;20058;-77
2021/01/15 07:17:01;;;;;;;26.33;11.60;;;-4.30;99.90;;;;;;4736623;30;20052;-78
2021/01/15 07:19:35;;;;;;;;;;;-4.30;99.90;;;;;;4736228;30;20050;-77
2021/01/15 07:22:08;;;;;;;;;;;-4.30;99.90;;;;;;4750635;30;19925;-78
2021/01/15 07:24:41;;;;;;;35.17;15.70;;;-4.30;99.90;;;;;;4750193;30;19929;-77
2021/01/15 07:27:13;;;;;;;28.77;12.88;;;-4.10;99.90;;;;;;4736638;30;20052;-77
2021/01/15 07:29:44;;;;;;;32.88;15.60;;;-4.10;99.90;;;;;;4735331;30;20056;-77
2021/01/15 07:32:19;;;;;;;34.60;16.67;;;-4.00;99.90;;;;;;4749759;30;20058;-77
2021/01/15 07:34:57;;;;;;;25.00;14.48;;;-4.00;99.90;;;;;;4749529;30;20052;-77
2021/01/15 07:37:31;;;;;;;21.98;9.60;;;-3.90;99.90;;;;;;4749091;30;20044;-77
2021/01/15 07:40:02;;;;;;;35.75;13.85;;;-3.90;99.90;;;;;;4733406;30;20044;-77
2021/01/15 07:42:42;;;;;;;32.20;13.90;;;-3.80;99.90;;;;;;4747066;30;20064;-77
2021/01/15 07:45:22;;;;;;;24.38;12.68;;;-3.70;99.90;;;;;;4753868;30;20039;-77
2021/01/15 07:47:57;;;;;;;27.17;13.07;;;-3.70;99.90;;;;;;4739767;30;20054;-78
2021/01/15 07:50:30;;;;;;;28.85;13.00;;;-3.60;99.90;;;;;;4753827;30;20055;-77
2021/01/15 07:53:12;;;;;;;27.25;13.48;;;-3.60;99.90;;;;;;4752573;30;20056;-77
2021/01/15 07:55:49;;;;;;;30.98;13.90;;;-3.50;99.90;;;;;;4721520;30;20694;-77
2021/01/15 07:58:22;;;;;;;29.45;12.57;;;-3.40;99.90;;;;;;4735393;30;20531;-77
2021/01/15 08:00:49;;;;;;;30.35;13.45;;;-3.40;99.90;;;;;;4721554;30;20062;-77
2021/01/15 08:03:21;;;;;;;37.03;16.38;;;-3.40;99.90;;;;;;4738905;30;20073;-77
2021/01/15 08:05:56;;;;;;;42.72;21.95;;;-3.30;99.90;;;;;;4738636;30;20063;-78
2021/01/15 08:08:22;;;;;;;35.67;16.83;;;-3.30;99.90;;;;;;4740881;30;20603;-77
2021/01/15 08:10:48;;;;;;;35.25;16.20;;;-3.20;99.90;;;;;;4750837;30;20246;-77
2021/01/15 08:13:20;;;;;;;37.60;14.50;;;-3.20;99.90;;;;;;4735826;30;20051;-77
2021/01/15 08:15:52;;;;;;;39.22;15.75;;;-3.10;99.90;;;;;;4747212;30;20528;-78
2021/01/15 08:18:24;;;;;;;35.47;15.93;;;-3.10;99.90;;;;;;4721675;30;20412;-77
2021/01/15 08:20:56;;;;;;;36.37;15.10;;;-3.00;99.90;;;;;;4737043;30;20058;-77
2021/01/15 08:23:28;;;;;;;33.30;13.43;;;-3.00;99.90;;;;;;4721784;30;20052;-77
2021/01/15 08:26:00;;;;;;;37.80;16.08;;;-2.90;99.90;;;;;;4749637;30;20091;-77
2021/01/15 08:28:27;;;;;;;37.95;16.38;;;-2.90;99.90;;;;;;4752610;30;20058;-77
2021/01/15 08:31:03;;;;;;;40.00;17.63;;;-2.90;99.90;;;;;;4754074;30;20054;-78
2021/01/15 08:33:35;;;;;;;37.72;18.17;;;-2.80;99.90;;;;;;4753482;30;20076;-78
2021/01/15 08:36:06;;;;;;;41.60;17.60;;;-2.80;99.90;;;;;;4753383;30;20040;-77
2021/01/15 08:38:38;;;;;;;33.83;16.05;;;-2.80;99.90;;;;;;4738064;30;20068;-77
2021/01/15 08:41:15;;;;;;;36.40;15.93;;;-2.80;99.90;;;;;;4735951;30;20523;-78
2021/01/15 08:43:41;;;;;;;35.40;16.73;;;-2.70;99.90;;;;;;4753072;30;20051;-78
2021/01/15 08:46:17;;;;;;;41.22;20.25;;;-2.60;99.90;;;;;;4737693;30;20052;-78
2021/01/15 08:48:45;;;;;;;38.03;18.05;;;-2.60;99.90;;;;;;4752916;30;20054;-77
2021/01/15 08:51:20;;;;;;;36.80;15.57;;;-2.50;99.90;;;;;;4754050;30;20064;-78
2021/01/15 08:54:05;;;;;;;47.03;23.00;;;-2.50;99.90;;;;;;4753247;30;20048;-77
2021/01/15 08:56:45;;;;;;;38.17;18.52;;;-2.50;99.90;;;;;;4750019;30;20044;-77
2021/01/15 08:59:14;;;;;;;43.92;21.05;;;-2.50;99.90;;;;;;4734957;30;20139;-78
2021/01/15 09:01:45;;;;;;;35.80;17.52;;;-2.40;99.90;;;;;;4752183;30;20054;-77
2021/01/15 09:04:21;;;;;;;32.95;14.88;;;-2.40;99.90;;;;;;4752447;30;20052;-78
2021/01/15 09:06:54;;;;;;;27.38;14.13;;;-2.30;99.90;;;;;;4739614;30;20087;-78
2021/01/15 09:09:27;;;;;;;24.50;12.35;;;-2.30;99.90;;;;;;4752764;30;20530;-78
2021/01/15 09:12:07;;;;;;;27.67;12.55;;;-2.30;99.90;;;;;;4738550;30;20052;-78
2021/01/15 09:14:38;;;;;;;22.05;13.82;;;-2.30;99.90;;;;;;4747153;30;20059;-77
2021/01/15 09:17:10;;;;;;;28.23;12.70;;;-2.20;99.90;;;;;;4735394;30;20067;-77
2021/01/15 09:19:36;;;;;;;25.83;13.77;;;-2.20;99.90;;;;;;4735576;30;20143;-78
2021/01/15 09:22:17;;;;;;;28.45;14.32;;;-2.10;99.90;;;;;;4735507;30;20058;-78
2021/01/15 09:24:48;;;;;;;24.63;13.63;;;-2.10;99.90;;;;;;4736079;30;20048;-77
2021/01/15 09:27:15;;;;;;;24.88;12.43;;;-2.00;99.90;;;;;;4734604;30;20063;-78
2021/01/15 09:29:46;;;;;;;27.77;14.93;;;-1.90;99.90;;;;;;4735319;30;20048;-77
2021/01/15 09:32:17;;;;;;;25.65;13.48;;;-1.90;99.90;;;;;;4739131;30;20063;-78
2021/01/15 09:34:49;;;;;;;24.52;13.25;;;-1.80;99.90;;;;;;4769361;30;20054;-78
2021/01/15 09:37:20;;;;;;;25.83;13.43;;;-1.80;99.90;;;;;;4770207;30;20051;-77
2021/01/15 09:39:51;;;;;;;22.55;12.60;;;-1.70;99.90;;;;;;4769695;30;20067;-77
2021/01/15 09:42:17;;;;;;;21.15;11.80;;;-1.70;99.90;;;;;;4755528;30;20089;-78
2021/01/15 09:44:43;;;;;;;21.65;11.60;;;-1.60;99.90;;;;;;4770090;30;20134;-77
2021/01/15 09:47:16;;;;;;;19.38;10.80;;;-1.50;99.90;;;;;;4765161;30;20048;-77
2021/01/15 09:49:42;;;;;;;19.40;11.45;;;-1.40;99.90;;;;;;4734625;30;20052;-77
2021/01/15 09:52:09;;;;;;;25.02;12.18;;;-1.30;99.90;;;;;;4741407;30;20055;-78
2021/01/15 09:54:40;;;;;;;24.45;12.30;;;-1.20;99.90;;;;;;4752324;30;20052;-78
2021/01/15 09:57:06;;;;;;;22.38;12.38;;;-1.20;99.90;;;;;;4739646;30;20139;-78
2021/01/15 09:59:37;;;;;;;22.00;11.68;;;-1.10;99.90;;;;;;4752610;30;20058;-78
2021/01/15 10:02:04;;;;;;;22.67;12.38;;;-1.10;99.90;;;;;;4752490;30;20496;-78
2021/01/15 10:04:30;;;;;;;18.85;11.85;;;-1.10;99.90;;;;;;4766236;30;20238;-78
2021/01/15 10:07:01;;;;;;;21.17;11.63;;;-1.10;99.90;;;;;;4756889;30;20051;-78
2021/01/15 10:09:32;;;;;;;20.17;11.45;;;-1.10;99.90;;;;;;4744584;30;20511;-78
2021/01/15 10:11:58;;;;;;;20.77;11.50;;;-1.10;99.90;;;;;;4769551;30;20150;-78
2021/01/15 10:14:26;;;;;;;22.15;12.88;;;-1.10;99.90;;;;;;4743507;30;20567;-78
2021/01/15 10:16:57;;;;;;;24.70;11.82;;;-1.10;99.90;;;;;;4757491;30;20065;-77
2021/01/15 10:19:28;;;;;;;22.90;11.45;;;-1.10;99.90;;;;;;4737466;30;20138;-78
2021/01/15 10:21:54;;;;;;;22.58;12.95;;;-1.30;99.90;;;;;;4754136;30;20039;-77
2021/01/15 10:24:20;;;;;;;22.42;12.75;;;-1.30;99.90;;;;;;4755979;30;20134;-78
2021/01/15 10:26:47;;;;;;;22.65;11.98;;;-1.30;99.90;;;;;;4758673;30;20065;-78
2021/01/15 10:29:18;;;;;;;21.67;12.85;;;-1.40;99.90;;;;;;4755490;30;20055;-78
2021/01/15 10:31:54;;;;;;;21.35;11.88;;;-1.40;99.90;;;;;;4757182;30;20460;-78
2021/01/15 10:34:27;;;;;;;19.95;11.35;;;-1.40;99.90;;;;;;4739328;30;20530;-78
2021/01/15 10:36:59;;;;;;;23.03;12.57;;;-1.40;99.90;;;;;;4738958;30;20471;-78
2021/01/15 10:39:25;;;;;;;21.52;12.45;;;-1.30;99.90;;;;;;4755463;30;20313;-77
2021/01/15 10:41:56;;;;;;;21.20;11.15;;;-1.30;99.90;;;;;;4760768;30;20044;-77
2021/01/15 10:44:29;;;;;;;22.27;11.98;;;-1.20;99.90;;;;;;4747078;30;20052;-78
2021/01/15 10:46:55;;;;;;;23.75;11.68;;;-1.10;99.90;;;;;;4734898;30;20045;-79
2021/01/15 10:49:26;;;;;;;23.30;12.20;;;-1.00;99.90;;;;;;4764934;30;20051;-78
2021/01/15 10:51:58;;;;;;;22.70;11.27;;;-0.90;99.90;;;;;;4751374;30;20047;-77
2021/01/15 10:54:30;;;;;;;20.27;11.32;;;-0.80;99.90;;;;;;4757163;30;20138;-76
2021/01/15 10:57:01;;;;;;;21.85;11.43;;;-0.70;99.90;;;;;;4764027;30;20054;-79
2021/01/15 10:59:32;;;;;;;21.98;11.40;;;-0.60;99.90;;;;;;4733198;30;20068;-77
2021/01/15 11:02:04;;;;;;;20.42;11.65;;;-0.40;99.90;;;;;;4734975;30;20053;-78
2021/01/15 11:04:35;;;;;;;23.50;12.43;;;-0.30;99.90;;;;;;4751983;30;20052;-77
2021/01/15 11:07:06;;;;;;;23.23;12.63;;;-0.20;99.90;;;;;;4738057;30;20128;-78
2021/01/15 11:09:38;;;;;;;21.88;12.48;;;-0.30;99.90;;;;;;4749536;30;20069;-77
2021/01/15 11:12:09;;;;;;;22.17;13.40;;;-0.30;99.90;;;;;;4751447;30;20047;-78
2021/01/15 11:14:40;;;;;;;26.60;13.55;;;-0.40;99.90;;;;;;4729085;30;20051;-77
2021/01/15 11:17:07;;;;;;;24.40;12.82;;;-0.40;99.90;;;;;;4733168;30;20135;-77
2021/01/15 11:19:38;;;;;;;22.90;12.65;;;-0.30;99.90;;;;;;4733509;30;20052;-76
2021/01/15 11:22:10;;;;;;;26.75;13.98;;;-0.30;99.90;;;;;;4750509;30;20066;-77
2021/01/15 11:24:36;;;;;;;24.45;13.95;;;-0.40;99.90;;;;;;4748909;30;20102;-77
2021/01/15 11:27:08;;;;;;;30.13;14.63;;;-0.40;99.90;;;;;;4750864;30;20047;-76
2021/01/15 11:29:43;;;;;;;28.77;15.48;;;-0.50;99.90;;;;;;4754575;30;20059;-78
2021/01/15 11:32:10;;;;;;;23.60;13.32;;;-0.60;99.90;;;;;;4783625;30;20057;-77
2021/01/15 11:34:41;;;;;;;26.08;14.10;;;-0.80;99.90;;;;;;4736942;30;20471;-77
2021/01/15 11:37:13;;;;;;;27.52;14.32;;;-0.80;99.90;;;;;;4760828;30;20112;-78
2021/01/15 11:39:47;;;;;;;26.75;14.30;;;-0.80;99.90;;;;;;4760590;30;20053;-78
2021/01/15 11:42:18;;;;;;;25.80;13.82;;;-0.80;99.90;;;;;;4759514;30;20043;-77
2021/01/15 11:44:49;;;;;;;25.15;14.35;;;-0.80;99.90;;;;;;4752699;30;20478;-78
2021/01/15 11:47:21;;;;;;;25.13;13.90;;;-0.70;99.90;;;;;;4719085;30;20060;-76
2021/01/15 11:49:52;;;;;;;25.75;13.45;;;-0.60;99.90;;;;;;4733509;30;20063;-78
2021/01/15 11:52:23;;;;;;;21.90;12.18;;;-0.50;99.90;;;;;;4719136;30;20419;-77
2021/01/15 11:54:49;;;;;;;24.20;13.20;;;-0.50;99.90;;;;;;4733108;30;20059;-77
2021/01/15 11:57:21;;;;;;;20.80;12.20;;;-0.50;99.90;;;;;;4766293;30;20051;-77
2021/01/15 11:59:52;;;;;;;22.92;11.63;;;-0.40;99.90;;;;;;4768642;30;20048;-77
2021/01/15 12:02:23;;;;;;;24.98;12.70;;;-0.30;99.90;;;;;;4781449;30;20756;-77
2021/01/15 12:04:55;;;;;;;23.17;12.10;;;-0.30;99.90;;;;;;4751315;30;20044;-77
2021/01/15 12:07:30;;;;;;;23.15;12.25;;;-0.30;99.90;;;;;;4762555;30;20066;-77
2021/01/15 12:09:56;;;;;;;22.25;11.57;;;-0.20;99.90;;;;;;4754163;30;20459;-77
2021/01/15 12:12:28;;;;;;;22.38;12.48;;;-0.20;99.90;;;;;;4752311;30;20062;-77
2021/01/15 12:14:59;;;;;;;21.73;12.48;;;-0.10;99.90;;;;;;4751333;30;20135;-77
2021/01/15 12:17:31;;;;;;;24.42;11.88;;;-0.20;99.90;;;;;;4737495;30;20066;-77
2021/01/15 12:20:04;;;;;;;20.70;12.55;;;-0.20;99.90;;;;;;4737462;30;20051;-77
2021/01/15 12:22:36;;;;;;;20.60;12.30;;;-0.30;99.90;;;;;;4767368;30;20504;-78
2021/01/15 12:25:08;;;;;;;23.80;13.57;;;-0.20;99.90;;;;;;4753623;30;20048;-78
2021/01/15 12:27:39;;;;;;;22.23;11.75;;;-0.20;99.90;;;;;;4766982;30;20082;-77
2021/01/15 12:30:11;;;;;;;24.42;11.60;;;-0.20;99.90;;;;;;4737998;30;20667;-77
2021/01/15 12:32:43;;;;;;;23.42;12.55;;;-0.20;99.90;;;;;;4742197;30;20439;-78
2021/01/15 12:35:14;;;;;;;22.42;11.85;;;-0.20;99.90;;;;;;4737200;30;20295;-77
2021/01/15 12:37:46;;;;;;;21.80;12.57;;;-0.10;99.90;;;;;;4752367;30;20054;-77
2021/01/15 12:40:17;;;;;;;22.30;10.98;;;0.00;99.90;;;;;;4739015;30;20054;-78
2021/01/15 12:42:50;;;;;;;22.58;11.30;;;-0.10;99.90;;;;;;4738936;30;20058;-77
2021/01/15 12:45:21;;;;;;;21.83;12.02;;;-0.10;99.90;;;;;;4739183;30;20725;-77
2021/01/15 12:47:52;;;;;;;24.63;13.30;;;0.00;99.90;;;;;;4753277;30;20044;-77
2021/01/15 12:50:19;;;;;;;24.85;11.68;;;0.00;99.90;;;;;;4738815;30;20139;-77
2021/01/15 12:52:51;;;;;;;22.30;11.90;;;0.00;99.90;;;;;;4752378;30;20524;-77
2021/01/15 12:55:23;;;;;;;20.60;11.55;;;0.10;99.90;;;;;;4739425;30;20060;-77
2021/01/15 12:57:56;;;;;;;22.05;12.40;;;0.20;99.90;;;;;;4738205;30;20063;-77
2021/01/15 13:00:29;;;;;;;23.05;12.25;;;0.30;99.90;;;;;;4751825;30;20123;-77